Time;durP1;ratioP1;P1;durP2;ratioP2;P2;SDS_P1;SDS_P2;PMS_P1;PMS_P2;Temp;Humidity;BMP_temperature;BMP_pressure;BME280_temperature;BME280_humidity;BME280_pressure;Samples;Min_cycle;Max_cycle;Signal;HPM_P1;HPM_P2
2022/08/19 00:01:30;;;;;;;;;14.00;12.25;;;;;21.39;59.54;100751.44;4977668;28;45367;-74
2022/08/19 00:04:05;;;;;;;;;10.50;10.50;;;;;21.37;59.69;100745.25;4976528;28;45388;-73
2022/08/19 00:06:31;;;;;;;;;18.75;14.00;;;;;21.29;59.73;100739.50;4977320;28;45395;-73
2022/08/19 00:08:59;;;;;;;;;15.50;15.50;;;;;21.32;59.52;100744.69;4976422;28;45493;-74
2022/08/19 00:11:27;;;;;;;;;11.50;11.25;;;;;21.21;59.90;100731.03;4994625;28;45962;-74
2022/08/19 00:13:53;;;;;;;;;11.25;11.25;;;;;21.24;59.96;100738.91;4978363;28;45344;-73
2022/08/19 00:16:19;;;;;;;;;14.50;12.50;;;;;21.22;59.78;100746.22;4977558;28;45435;-74
2022/08/19 00:18:44;;;;;;;;;13.00;11.00;;;;;21.20;60.12;100750.84;4976299;28;45435;-76
2022/08/19 00:21:10;;;;;;;;;16.50;10.75;;;;;21.16;60.02;100747.47;4976180;28;45448;-74
2022/08/19 00:23:36;;;;;;;;;14.25;12.00;;;;;21.14;60.19;100748.53;4976906;28;45534;-73
2022/08/19 00:26:05;;;;;;;;;13.50;12.25;;;;;21.05;59.96;100745.44;4977232;28;45374;-72
2022/08/19 00:28:32;;;;;;;;;15.25;12.75;;;;;21.05;60.32;100755.31;4977284;28;45690;-74
2022/08/19 00:30:58;;;;;;;;;12.75;10.00;;;;;20.94;60.29;100745.25;4975326;28;46994;-76
2022/08/19 00:33:24;;;;;;;;;11.75;11.75;;;;;20.99;60.86;100756.56;4975603;28;45489;-75
2022/08/19 00:35:49;;;;;;;;;10.50;9.00;;;;;20.90;60.47;100741.84;4976754;28;45412;-75
2022/08/19 00:38:14;;;;;;;;;11.25;10.00;;;;;20.92;60.46;100749.81;4977760;28;45384;-74
2022/08/19 00:40:43;;;;;;;;;11.00;11.00;;;;;20.92;60.50;100753.41;4978248;28;46102;-74
2022/08/19 00:43:12;;;;;;;;;14.00;13.75;;;;;20.90;60.58;100752.59;4982529;28;45483;-73
2022/08/19 00:45:41;;;;;;;;;12.00;11.50;;;;;20.88;60.36;100753.66;4976799;28;45357;-72
2022/08/19 00:48:08;;;;;;;;;14.00;10.25;;;;;20.89;60.70;100760.75;4976990;28;45577;-73
2022/08/19 00:50:34;;;;;;;;;10.25;10.25;;;;;20.85;60.81;100760.09;4976998;28;45446;-75
2022/08/19 00:53:04;;;;;;;;;12.00;10.00;;;;;20.86;60.89;100763.63;4975872;28;45388;-73
2022/08/19 00:55:32;;;;;;;;;9.75;9.50;;;;;20.83;60.80;100759.31;4975213;28;45480;-73
2022/08/19 00:58:06;;;;;;;;;12.75;12.75;;;;;20.82;60.89;100751.34;4976909;28;45587;-74
2022/08/19 01:00:36;;;;;;;;;10.50;8.50;;;;;20.80;60.71;100759.50;4976842;28;45517;-74
2022/08/19 01:03:06;;;;;;;;;13.00;13.00;;;;;20.73;60.89;100750.94;4975799;28;45534;-74
2022/08/19 01:05:32;;;;;;;;;14.25;11.50;;;;;20.74;61.04;100754.47;4976319;28;45426;-74
2022/08/19 01:08:00;;;;;;;;;14.00;12.75;;;;;20.72;61.00;100759.94;4976534;28;45459;-72
2022/08/19 01:10:29;;;;;;;;;11.00;11.00;;;;;20.68;61.05;100757.53;4976494;28;46062;-73
2022/08/19 01:12:55;;;;;;;;;10.00;9.00;;;;;20.65;61.18;100747.84;4980458;28;45493;-73
2022/08/19 01:15:27;;;;;;;;;16.50;11.75;;;;;20.64;61.11;100740.72;4976577;28;45429;-73
2022/08/19 01:17:54;;;;;;;;;12.50;11.50;;;;;20.59;61.57;100742.81;4975676;28;45334;-74
2022/08/19 01:20:23;;;;;;;;;11.75;10.75;;;;;20.54;61.18;100744.91;4975448;28;46397;-75
2022/08/19 01:22:52;;;;;;;;;14.50;13.50;;;;;20.57;61.38;100750.06;4975676;28;45408;-73
2022/08/19 01:25:22;;;;;;;;;13.25;12.00;;;;;20.53;61.65;100761.97;4975823;28;45615;-74
2022/08/19 01:27:50;;;;;;;;;15.00;13.25;;;;;20.51;61.66;100762.06;4980827;28;45537;-74
2022/08/19 01:30:22;;;;;;;;;13.00;11.75;;;;;20.49;61.79;100763.09;4975322;28;46170;-74
2022/08/19 01:32:48;;;;;;;;;12.25;12.25;;;;;20.48;61.74;100761.38;4975479;28;45439;-74
2022/08/19 01:35:13;;;;;;;;;14.25;13.75;;;;;20.42;61.98;100752.72;4976819;28;45395;-74
2022/08/19 01:37:45;;;;;;;;;13.00;12.00;;;;;20.36;61.70;100747.72;4976247;28;45499;-74
2022/08/19 01:40:10;;;;;;;;;14.25;13.50;;;;;20.37;62.02;100754.78;4978565;28;46308;-72
2022/08/19 01:42:36;;;;;;;;;13.25;12.75;;;;;20.34;62.25;100754.97;4994449;28;45478;-74
2022/08/19 01:45:03;;;;;;;;;14.00;14.00;;;;;20.27;62.41;100744.69;4992861;28;45473;-73
2022/08/19 01:47:28;;;;;;;;;15.25;12.50;;;;;20.34;62.13;100760.34;4975998;28;45659;-74
2022/08/19 01:49:53;;;;;;;;;15.75;14.50;;;;;20.31;62.45;100755.16;4976563;28;45679;-74
2022/08/19 01:52:19;;;;;;;;;12.25;12.25;;;;;20.30;62.37;100761.50;4975046;28;45447;-73
2022/08/19 01:54:44;;;;;;;;;15.75;13.25;;;;;20.21;62.56;100754.84;4975136;28;45436;-73
2022/08/19 01:57:12;;;;;;;;;14.50;14.00;;;;;20.27;62.41;100767.03;4989100;28;45539;-73
2022/08/19 01:59:39;;;;;;;;;11.75;11.00;;;;;20.24;62.49;100768.06;4995836;28;45434;-73
2022/08/19 02:02:09;;;;;;;;;15.25;12.25;;;;;20.22;62.87;100769.09;4991686;28;45674;-74
2022/08/19 02:04:35;;;;;;;;;15.00;13.75;;;;;20.18;62.81;100757.69;4975191;28;45534;-74
2022/08/19 02:07:01;;;;;;;;;12.25;12.25;;;;;20.17;62.66;100760.47;4975889;28;45456;-74
2022/08/19 02:09:27;;;;;;;;;11.25;10.00;;;;;20.13;63.07;100754.38;4974454;28;45429;-74
2022/08/19 02:11:53;;;;;;;;;17.75;14.75;;;;;20.09;63.12;100765.38;4979075;28;45575;-73
2022/08/19 02:14:18;;;;;;;;;13.00;13.00;;;;;20.05;63.58;100765.56;4981003;28;45488;-73
2022/08/19 02:16:44;;;;;;;;;15.75;15.75;;;;;20.03;63.59;100761.25;4987282;28;45368;-74
2022/08/19 02:19:10;;;;;;;;;15.00;14.00;;;;;20.01;63.60;100755.09;4980126;28;47526;-73
2022/08/19 02:21:36;;;;;;;;;16.25;15.25;;;;;19.98;63.77;100757.94;4991005;28;45415;-72
2022/08/19 02:24:02;;;;;;;;;15.25;14.50;;;;;19.96;63.78;100762.56;4976324;28;45482;-74
2022/08/19 02:26:27;;;;;;;;;14.25;13.25;;;;;19.96;63.87;100766.09;4973592;28;45529;-74
2022/08/19 02:28:54;;;;;;;;;15.00;12.50;;;;;19.89;63.81;100759.34;4975710;28;45923;-73
2022/08/19 02:31:22;;;;;;;;;16.50;13.00;;;;;19.93;64.15;100770.78;4976207;28;45540;-74
2022/08/19 02:33:47;;;;;;;;;14.00;13.50;;;;;19.90;64.42;100782.53;4975302;28;45424;-74
2022/08/19 02:36:15;;;;;;;;;13.75;13.25;;;;;19.83;64.30;100771.28;4975246;28;45401;-74
2022/08/19 02:38:41;;;;;;;;;15.50;11.00;;;;;19.82;64.64;100768.69;4974021;28;45472;-74
2022/08/19 02:41:12;;;;;;;;;11.25;11.25;;;;;19.84;64.57;100766.78;4991513;28;45566;-73
2022/08/19 02:43:40;;;;;;;;;11.50;11.00;;;;;19.86;64.69;100767.56;4994552;28;45339;-73
2022/08/19 02:46:17;;;;;;;;;16.00;14.25;;;;;19.84;65.26;100772.13;4975122;28;45422;-73
2022/08/19 02:48:43;;;;;;;;;12.75;10.75;;;;;19.83;65.11;100771.28;4974698;28;46000;-73
2022/08/19 02:51:15;;;;;;;;;16.00;14.00;;;;;19.82;65.34;100766.00;4988371;28;45480;-74
2022/08/19 02:53:40;;;;;;;;;12.00;12.00;;;;;19.76;65.57;100755.59;4993999;28;45422;-73
2022/08/19 02:56:06;;;;;;;;;13.25;13.25;;;;;19.83;65.47;100765.03;4973139;28;45646;-73
2022/08/19 02:58:32;;;;;;;;;13.00;11.50;;;;;19.84;65.50;100761.41;4974110;28;45483;-74
2022/08/19 03:00:57;;;;;;;;;17.00;13.50;;;;;19.88;65.17;100769.19;4974807;28;45565;-74
2022/08/19 03:03:23;;;;;;;;;14.00;12.00;;;;;19.88;65.55;100774.56;4975310;28;45701;-73
2022/08/19 03:05:48;;;;;;;;;14.50;14.50;;;;;19.88;65.45;100771.03;4975024;28;45607;-74
2022/08/19 03:08:14;;;;;;;;;14.50;11.50;;;;;19.87;65.84;100774.66;4972681;28;46228;-74
2022/08/19 03:10:46;;;;;;;;;12.75;12.00;;;;;19.87;66.00;100775.53;4975874;28;45489;-73
2022/08/19 03:13:16;;;;;;;;;15.00;11.25;;;;;19.91;66.08;100778.91;4977684;28;45368;-74
2022/08/19 03:15:43;;;;;;;;;13.00;11.00;;;;;19.86;66.30;100768.44;4975513;28;45574;-73
2022/08/19 03:18:09;;;;;;;;;10.25;10.25;;;;;19.85;66.66;100763.16;4974307;28;46099;-74
2022/08/19 03:20:49;;;;;;;;;15.75;13.50;;;;;19.83;66.76;100763.25;4962541;28;45426;-74
2022/08/19 03:23:16;;;;;;;;;12.75;10.75;;;;;19.84;66.93;100772.13;4974635;28;45384;-73
2022/08/19 03:25:45;;;;;;;;;14.75;12.75;;;;;19.79;67.14;100764.34;4974514;28;45344;-74
2022/08/19 03:28:12;;;;;;;;;12.00;10.50;;;;;19.80;67.38;100768.78;4973905;28;46004;-74
2022/08/19 03:30:39;;;;;;;;;12.50;10.50;;;;;19.81;67.13;100761.59;4990806;28;45648;-75
2022/08/19 03:33:05;;;;;;;;;18.00;16.00;;;;;19.81;66.92;100754.41;4994213;28;45376;-74
2022/08/19 03:35:30;;;;;;;;;13.00;13.00;;;;;19.82;66.87;100753.44;4975672;28;45503;-73
2022/08/19 03:37:56;;;;;;;;;10.00;10.00;;;;;19.83;66.87;100743.59;4973831;28;45924;-74
2022/08/19 03:40:21;;;;;;;;;11.50;11.00;;;;;19.86;66.92;100756.84;4981138;28;45569;-74
2022/08/19 03:42:47;;;;;;;;;12.50;11.00;;;;;19.87;66.51;100762.13;4976157;28;45426;-74
2022/08/19 03:45:12;;;;;;;;;10.25;9.75;;;;;19.87;66.35;100766.59;4973054;28;45696;-74
2022/08/19 03:47:37;;;;;;;;;9.00;9.00;;;;;19.89;66.28;100759.34;4974252;28;46155;-74
2022/08/19 03:50:04;;;;;;;;;12.75;10.25;;;;;19.86;66.74;100767.56;4973648;28;45559;-73
2022/08/19 03:52:30;;;;;;;;;11.00;9.00;;;;;19.81;66.44;100757.06;4974590;28;45621;-74
2022/08/19 03:54:55;;;;;;;;;9.00;9.00;;;;;19.85;66.62;100765.84;4983411;28;45531;-74
2022/08/19 03:57:21;;;;;;;;;10.50;10.50;;;;;19.82;66.80;100758.81;4977686;28;45347;-74
2022/08/19 03:59:46;;;;;;;;;13.00;11.50;;;;;19.87;66.37;100763.91;4977424;28;45391;-73
2022/08/19 04:02:13;;;;;;;;;11.75;11.75;;;;;19.82;66.50;100760.66;4977456;28;45352;-73
2022/08/19 04:04:40;;;;;;;;;12.75;11.00;;;;;19.84;66.59;100770.34;4978121;28;45459;-73
2022/08/19 04:07:06;;;;;;;;;14.75;9.75;;;;;19.84;66.64;100764.09;4977317;28;46186;-74
2022/08/19 04:09:34;;;;;;;;;9.75;8.50;;;;;19.85;66.60;100768.50;4988847;28;45442;-74
2022/08/19 04:11:59;;;;;;;;;10.00;10.00;;;;;19.86;66.26;100768.44;4998748;28;46250;-74
2022/08/19 04:14:29;;;;;;;;;9.00;9.00;;;;;19.85;66.50;100757.78;4996780;28;45495;-73
2022/08/19 04:16:56;;;;;;;;;13.50;10.25;;;;;19.82;66.45;100753.44;4990880;28;45390;-73
2022/08/19 04:19:22;;;;;;;;;10.00;10.00;;;;;19.82;66.27;100753.44;4976908;28;45530;-74
2022/08/19 04:21:50;;;;;;;;;11.50;9.75;;;;;19.82;66.38;100764.19;4976540;28;45589;-74
2022/08/19 04:24:16;;;;;;;;;11.00;9.25;;;;;19.82;66.45;100749.91;4975775;28;45658;-74
2022/08/19 04:26:41;;;;;;;;;9.25;6.25;;;;;19.84;66.44;100758.72;4976992;28;45345;-74
2022/08/19 04:29:10;;;;;;;;;9.50;9.00;;;;;19.85;65.92;100764.00;4977085;28;45490;-72
2022/08/19 04:31:35;;;;;;;;;8.75;8.75;;;;;19.84;66.14;100766.78;4977526;28;45357;-74
2022/08/19 04:34:04;;;;;;;;;8.50;8.00;;;;;19.85;66.06;100771.19;4975603;28;45465;-73
2022/08/19 04:36:34;;;;;;;;;7.50;6.00;;;;;19.79;65.84;100758.13;4976770;28;46409;-72
2022/08/19 04:39:04;;;;;;;;;6.00;4.75;;;;;19.86;65.80;100770.25;4986367;28;45540;-75
2022/08/19 04:44:17;;;;;;;;;7.75;7.50;;;;;19.84;66.06;100769.47;4997582;28;45338;-75
2022/08/19 04:46:43;;;;;;;;;9.25;8.25;;;;;19.81;66.11;100759.75;4986310;28;46113;-74
2022/08/19 04:49:09;;;;;;;;;9.50;6.75;;;;;19.86;66.07;100771.13;4961999;28;45416;-76
2022/08/19 04:51:36;;;;;;;;;10.25;8.00;;;;;19.86;66.12;100775.63;4957907;28;45321;-74
2022/08/19 04:54:03;;;;;;;;;7.25;5.00;;;;;19.90;66.30;100787.03;4969070;28;45535;-74
2022/08/19 04:56:28;;;;;;;;;3.25;3.25;;;;;19.91;66.48;100791.47;4976969;28;46298;-74
2022/08/19 04:58:55;;;;;;;;;5.50;5.50;;;;;19.91;66.42;100795.00;4977590;28;45312;-74
2022/08/19 05:01:30;;;;;;;;;9.00;6.25;;;;;19.92;66.54;100794.06;4979731;28;45351;-73
2022/08/19 05:03:56;;;;;;;;;8.00;7.00;;;;;19.90;66.33;100793.25;4991746;28;45490;-73
2022/08/19 05:06:23;;;;;;;;;6.00;6.00;;;;;19.94;66.58;100810.91;4986627;28;45357;-73
2022/08/19 05:08:49;;;;;;;;;5.00;4.00;;;;;19.94;66.43;100810.91;4985733;28;45566;-74
2022/08/19 05:11:17;;;;;;;;;4.00;4.00;;;;;19.94;66.00;100800.19;4996038;28;45380;-74
2022/08/19 05:13:44;;;;;;;;;4.00;4.00;;;;;19.97;65.91;100809.88;4984136;28;45389;-74
2022/08/19 05:16:12;;;;;;;;;6.00;6.00;;;;;19.97;66.08;100813.41;4976631;28;46299;-75
2022/08/19 05:24:08;;;;;;;;;4.25;3.00;;;;;19.99;65.85;100803.47;4985529;28;45495;-73
2022/08/19 05:26:35;;;;;;;;;5.00;5.00;;;;;19.99;65.98;100798.09;4995784;28;46341;-74
2022/08/19 05:29:01;;;;;;;;;5.25;5.25;;;;;19.99;65.94;100806.16;4975706;28;45495;-73
2022/08/19 05:31:27;;;;;;;;;3.75;3.75;;;;;19.96;65.92;100802.78;4976377;28;45426;-74
2022/08/19 05:33:52;;;;;;;;;4.00;4.00;;;;;20.01;66.04;100812.31;4975933;28;45384;-74
2022/08/19 05:36:19;;;;;;;;;4.50;4.50;;;;;20.01;65.82;100817.69;4976206;28;46167;-74
2022/08/19 05:38:45;;;;;;;;;7.25;4.75;;;;;20.04;65.93;100814.81;4988324;28;45575;-74
2022/08/19 05:41:12;;;;;;;;;7.25;6.75;;;;;20.05;66.05;100808.47;4996358;28;45410;-73
2022/08/19 05:43:38;;;;;;;;;6.75;5.00;;;;;20.04;66.51;100817.50;4996306;28;45442;-74
2022/08/19 05:46:07;;;;;;;;;5.25;4.25;;;;;20.01;66.29;100817.69;4995418;28;46076;-74
2022/08/19 05:48:33;;;;;;;;;3.50;3.00;;;;;20.00;66.57;100810.56;4994726;28;45526;-73
2022/08/19 05:51:06;;;;;;;;;6.00;4.00;;;;;20.03;66.98;100802.34;4975696;28;45285;-73
2022/08/19 05:53:33;;;;;;;;;7.00;5.50;;;;;20.00;66.93;100798.97;4975291;28;45459;-73
2022/08/19 05:56:06;;;;;;;;;4.50;4.25;;;;;20.04;66.92;100806.78;4975417;28;46000;-74
2022/08/19 05:58:32;;;;;;;;;3.75;3.75;;;;;20.11;66.90;100809.09;4975755;28;45345;-75
2022/08/19 06:00:58;;;;;;;;;4.75;4.50;;;;;20.17;66.81;100814.13;4956375;28;45414;-75
2022/08/19 06:03:23;;;;;;;;;5.00;5.00;;;;;20.19;67.06;100820.25;4985077;28;45314;-74
2022/08/19 06:05:49;;;;;;;;;5.00;5.00;;;;;20.10;66.89;100800.19;4995977;28;45993;-74
2022/08/19 06:08:14;;;;;;;;;2.75;2.75;;;;;20.18;67.37;100816.72;4994655;28;45501;-73
2022/08/19 06:10:39;;;;;;;;;3.00;3.00;;;;;20.21;67.37;100826.44;4978168;28;45471;-74
2022/08/19 06:13:05;;;;;;;;;2.75;2.50;;;;;20.19;67.69;100825.63;4975707;28;45408;-75
2022/08/19 06:15:31;;;;;;;;;3.00;2.00;;;;;20.15;68.04;100821.41;4976079;28;45832;-75
2022/08/19 06:17:56;;;;;;;;;3.00;3.00;;;;;20.09;68.19;100833.34;4974238;28;45513;-74
2022/08/19 06:20:21;;;;;;;;;3.00;3.00;;;;;20.06;68.19;100837.06;4974258;28;45730;-75
2022/08/19 06:22:51;;;;;;;;;3.25;3.25;;;;;19.99;68.57;100832.13;4956049;28;45393;-74
2022/08/19 06:25:17;;;;;;;;;3.25;3.25;;;;;20.01;68.61;100839.13;4969508;28;46525;-74
2022/08/19 06:27:43;;;;;;;;;3.00;3.00;;;;;19.99;68.78;100845.53;4956339;28;45370;-73
2022/08/19 06:30:11;;;;;;;;;2.25;2.25;;;;;19.98;68.52;100833.94;4970638;28;45874;-74
2022/08/19 06:32:36;;;;;;;;;2.50;1.75;;;;;20.03;68.77;100839.91;4981616;28;45395;-74
2022/08/19 06:35:02;;;;;;;;;2.75;2.75;;;;;20.08;68.68;100846.84;4993286;28;56571;-75
2022/08/19 06:37:28;;;;;;;;;3.25;2.00;;;;;20.09;68.69;100848.56;4983245;28;45423;-74
2022/08/19 06:39:53;;;;;;;;;3.50;2.25;;;;;20.07;69.16;100840.59;4986533;28;45756;-73
2022/08/19 06:42:18;;;;;;;;;1.25;1.25;;;;;20.10;68.75;100856.50;4976819;28;45570;-73
2022/08/19 06:44:46;;;;;;;;;2.00;2.00;;;;;20.15;68.38;100850.91;4973988;28;47297;-76
2022/08/19 06:47:15;;;;;;;;;1.75;1.75;;;;;20.13;68.64;100858.16;4975470;28;45551;-74
2022/08/19 06:49:41;;;;;;;;;2.75;2.00;;;;;20.09;68.44;100841.38;4975686;28;45336;-79
2022/08/19 06:52:07;;;;;;;;;5.00;3.75;;;;;20.20;68.21;100859.56;4975211;28;45513;-75
2022/08/19 06:54:33;;;;;;;;;3.25;2.75;;;;;20.23;68.03;100860.25;4972969;28;45391;-73
2022/08/19 06:57:02;;;;;;;;;2.00;2.00;;;;;20.33;67.99;100849.88;4973533;28;46270;-73
2022/08/19 06:59:32;;;;;;;;;2.25;2.00;;;;;20.44;67.48;100854.63;4974639;28;45395;-75
2022/08/19 07:01:59;;;;;;;;;1.25;1.25;;;;;20.53;66.90;100855.94;4974400;28;45382;-75
2022/08/19 07:04:27;;;;;;;;;2.75;2.75;;;;;20.54;67.49;100854.97;4974705;28;45384;-74
2022/08/19 07:07:07;;;;;;;;;3.00;3.00;;;;;20.57;67.32;100862.84;4980624;28;45355;-75
2022/08/19 07:09:33;;;;;;;;;2.00;2.00;;;;;20.56;67.11;100861.13;4996621;28;45403;-75
2022/08/19 07:11:59;;;;;;;;;4.00;3.00;;;;;20.63;67.08;100857.13;4984158;28;45528;-75
2022/08/19 07:14:27;;;;;;;;;2.00;2.00;;;;;20.82;66.46;100867.69;4974417;28;46223;-74
2022/08/19 07:16:54;;;;;;;;;2.00;2.00;;;;;20.93;65.90;100872.44;4974737;28;45469;-75
2022/08/19 07:19:21;;;;;;;;;2.00;2.00;;;;;20.95;65.39;100873.19;4974246;28;45488;-75
2022/08/19 07:21:49;;;;;;;;;1.00;1.00;;;;;20.94;65.42;100871.50;4973917;28;45543;-74
2022/08/19 07:24:15;;;;;;;;;2.50;2.50;;;;;20.90;65.95;100870.78;4974832;28;45515;-80
2022/08/19 07:26:43;;;;;;;;;0.25;0.25;;;;;20.91;65.72;100871.69;4976353;28;45608;-73
2022/08/19 07:29:09;;;;;;;;;2.00;2.00;;;;;20.91;65.68;100871.69;4975925;28;45477;-73
2022/08/19 07:31:36;;;;;;;;;1.00;1.00;;;;;20.91;65.50;100860.94;4978708;28;45480;-73
2022/08/19 07:34:06;;;;;;;;;1.75;1.75;;;;;20.91;65.95;100867.16;4978422;28;45502;-73
2022/08/19 07:36:32;;;;;;;;;1.75;1.75;;;;;20.99;65.75;100866.69;4977405;28;45451;-75
2022/08/19 07:39:00;;;;;;;;;1.75;1.00;;;;;20.97;65.68;100863.25;4983930;28;45431;-72
2022/08/19 07:41:31;;;;;;;;;0.75;0.75;;;;;21.03;66.17;100867.38;4980424;28;45336;-74
2022/08/19 07:43:58;;;;;;;;;2.50;2.00;;;;;21.04;65.50;100864.59;4991757;28;46497;-75
2022/08/19 07:46:23;;;;;;;;;3.00;1.75;;;;;21.06;65.92;100868.06;4991217;28;45427;-72
2022/08/19 07:48:51;;;;;;;;;2.00;1.00;;;;;21.10;65.72;100872.31;4983264;28;45481;-75
2022/08/19 07:51:20;;;;;;;;;1.00;1.00;;;;;21.10;65.77;100860.69;4976110;28;45452;-75
2022/08/19 07:53:47;;;;;;;;;2.75;2.00;;;;;21.10;65.65;100877.69;4975905;28;45502;-75
2022/08/19 07:56:14;;;;;;;;;2.00;1.00;;;;;21.11;65.60;100865.13;4977967;28;45934;-75
2022/08/19 07:58:42;;;;;;;;;1.00;1.00;;;;;21.12;65.68;100875.78;4984407;28;45506;-76
2022/08/19 08:01:11;;;;;;;;;2.00;2.00;;;;;21.16;65.55;100857.63;4974678;28;45485;-75
2022/08/19 08:09:12;;;;;;;;;2.00;2.00;;;;;21.36;64.66;100861.78;4984605;28;45435;-73
2022/08/19 08:11:48;;;;;;;;;2.25;2.00;;;;;21.39;65.02;100861.63;4983349;28;45428;-75
2022/08/19 08:14:16;;;;;;;;;1.00;1.00;;;;;21.42;64.28;100861.44;4983581;28;45454;-73
2022/08/19 08:16:43;;;;;;;;;3.75;2.25;;;;;21.57;64.17;100861.50;4989209;28;45374;-74
2022/08/19 08:19:09;;;;;;;;;2.25;1.00;;;;;21.68;63.66;100871.56;4982685;28;45395;-74
2022/08/19 08:21:35;;;;;;;;;3.50;1.00;;;;;21.65;63.67;100875.31;4975453;28;45486;-75
2022/08/19 08:24:01;;;;;;;;;1.00;1.00;;;;;21.64;63.27;100881.66;4990997;28;47352;-74
2022/08/19 08:26:27;;;;;;;;;1.00;1.00;;;;;21.71;63.40;100883.03;4975920;28;45387;-74
2022/08/19 08:28:53;;;;;;;;;1.00;1.00;;;;;21.77;63.29;100876.38;4976393;28;45629;-74
2022/08/19 08:31:19;;;;;;;;;2.25;1.75;;;;;21.75;63.04;100887.25;4975673;28;45487;-74
2022/08/19 08:33:45;;;;;;;;;1.00;1.00;;;;;21.76;63.21;100890.81;4976052;28;45594;-74
2022/08/19 08:36:13;;;;;;;;;2.00;1.50;;;;;21.71;63.25;100893.78;4968916;28;45515;-75
2022/08/19 08:38:40;;;;;;;;;0.50;0.50;;;;;21.70;63.44;100886.66;4975562;28;45473;-74
2022/08/19 08:41:37;;;;;;;;;2.00;2.00;;;;;21.77;63.60;100885.34;4974294;28;45425;-75
2022/08/19 08:44:04;;;;;;;;;3.00;3.00;;;;;21.77;63.20;100881.75;4991476;28;47160;-76
2022/08/19 08:46:47;;;;;;;;;2.75;2.75;;;;;21.85;63.39;100889.34;4968764;28;45637;-76
2022/08/19 08:49:26;;;;;;;;;2.00;1.00;;;;;21.91;62.67;100883.59;4975711;28;45470;-77
2022/08/19 08:52:06;;;;;;;;;1.75;1.75;;;;;22.00;62.74;100880.31;4976725;28;45503;-75
2022/08/19 08:54:40;;;;;;;;;2.00;1.00;;;;;22.09;62.24;100893.22;4976366;28;45956;-76
2022/08/19 08:57:23;;;;;;;;;2.00;2.00;;;;;22.21;62.22;100885.31;4975869;28;45513;-76
2022/08/19 08:59:51;;;;;;;;;2.00;2.00;;;;;22.31;61.64;100886.47;4977374;28;45296;-77
2022/08/19 09:02:18;;;;;;;;;3.00;3.00;;;;;22.42;61.70;100883.09;4974821;28;45545;-75
2022/08/19 09:04:44;;;;;;;;;2.50;1.25;;;;;22.48;61.34;100878.16;4975950;28;46161;-77
2022/08/19 09:07:26;;;;;;;;;3.00;3.00;;;;;22.59;60.81;100881.97;4976559;28;45427;-76
2022/08/19 09:09:55;;;;;;;;;3.75;3.75;;;;;22.61;60.71;100877.34;4978196;28;45425;-77
2022/08/19 09:12:31;;;;;;;;;2.50;2.50;;;;;22.70;61.26;100888.41;4975208;28;45599;-76
2022/08/19 09:15:07;;;;;;;;;2.00;2.00;;;;;22.71;60.24;100875.78;4980156;28;45393;-77
2022/08/19 09:17:33;;;;;;;;;2.75;2.00;;;;;22.84;60.14;100876.69;4976115;28;45334;-77
2022/08/19 09:20:06;;;;;;;;;3.25;2.00;;;;;23.03;60.67;100873.63;4975186;28;45443;-77
2022/08/19 09:22:32;;;;;;;;;3.75;2.00;;;;;23.08;59.42;100870.63;4975270;28;45546;-77
2022/08/19 09:24:58;;;;;;;;;2.50;2.00;;;;;23.15;58.67;100871.94;4974576;28;46081;-77
2022/08/19 09:27:25;;;;;;;;;3.00;3.00;;;;;23.27;58.74;100881.03;4975503;28;45424;-78
2022/08/19 09:29:51;;;;;;;;;4.25;3.00;;;;;23.33;58.88;100866.28;4975132;28;45534;-76
2022/08/19 09:32:17;;;;;;;;;1.00;1.00;;;;;23.50;58.04;100876.75;4989906;28;45531;-75
2022/08/19 09:34:43;;;;;;;;;1.00;1.00;;;;;23.53;57.97;100875.69;4974326;28;46122;-75
2022/08/19 09:37:09;;;;;;;;;2.00;2.00;;;;;23.78;57.40;100880.22;4975603;28;45493;-73
2022/08/19 09:39:34;;;;;;;;;3.25;2.00;;;;;23.81;57.22;100860.22;4975125;28;45475;-74
2022/08/19 09:42:00;;;;;;;;;2.00;1.00;;;;;23.97;56.61;100865.44;4975711;28;45423;-73
2022/08/19 09:44:26;;;;;;;;;2.00;2.00;;;;;24.16;56.10;100863.13;4975799;28;45450;-75
2022/08/19 09:46:51;;;;;;;;;4.00;2.00;;;;;24.34;55.93;100855.53;4974921;28;45460;-75
2022/08/19 09:49:18;;;;;;;;;3.00;2.00;;;;;24.75;55.37;100867.81;4975334;28;45571;-75
2022/08/19 09:51:44;;;;;;;;;2.00;2.00;;;;;25.20;54.59;100859.00;4974371;28;45562;-75
2022/08/19 09:54:10;;;;;;;;;2.75;2.75;;;;;25.41;53.37;100856.50;4975889;28;45502;-75
2022/08/19 09:56:35;;;;;;;;;3.00;3.00;;;;;25.34;52.90;100866.97;4973607;28;45452;-74
2022/08/19 09:59:03;;;;;;;;;3.75;2.00;;;;;25.28;53.04;100872.81;4975276;28;45419;-74
2022/08/19 10:01:30;;;;;;;;;2.25;1.25;;;;;25.22;52.95;100876.00;4987571;28;45451;-75
2022/08/19 10:03:58;;;;;;;;;1.00;1.00;;;;;25.01;53.64;100871.25;4974494;28;45391;-75
2022/08/19 10:06:29;;;;;;;;;3.75;3.00;;;;;24.92;53.77;100866.53;4974386;28;45778;-75
2022/08/19 10:08:54;;;;;;;;;2.75;2.75;;;;;24.99;54.15;100865.09;4972147;28;45507;-76
2022/08/19 10:11:20;;;;;;;;;2.25;2.25;;;;;25.02;53.80;100869.38;4974559;28;45399;-75
2022/08/19 10:13:46;;;;;;;;;2.00;2.00;;;;;25.08;54.44;100859.97;4974905;28;45534;-74
2022/08/19 10:16:15;;;;;;;;;2.75;1.75;;;;;25.18;53.94;100864.53;4975831;28;45629;-74
2022/08/19 10:18:43;;;;;;;;;1.75;1.75;;;;;25.14;53.53;100860.38;4970057;28;45456;-74
2022/08/19 10:21:14;;;;;;;;;1.50;1.50;;;;;24.85;53.66;100853.59;4974775;28;45515;-74
2022/08/19 10:23:44;;;;;;;;;1.00;1.00;;;;;24.80;53.79;100867.47;4975240;28;46429;-75
2022/08/19 10:26:15;;;;;;;;;2.75;2.00;;;;;24.87;54.06;100863.34;4970235;28;45574;-75
2022/08/19 10:28:41;;;;;;;;;1.00;1.00;;;;;25.01;54.16;100854.16;4979234;28;45605;-74
2022/08/19 10:31:09;;;;;;;;;2.50;1.50;;;;;25.18;54.28;100858.28;4980960;28;45606;-75
2022/08/19 10:33:35;;;;;;;;;1.50;1.50;;;;;25.34;53.18;100853.44;4972813;28;46239;-75
2022/08/19 10:36:08;;;;;;;;;1.00;1.00;;;;;25.54;52.42;100856.44;4974662;28;45575;-74
2022/08/19 10:38:34;;;;;;;;;2.00;2.00;;;;;25.70;51.78;100851.50;4973539;28;45439;-75
2022/08/19 10:41:33;;;;;;;;;1.00;1.00;;;;;25.95;51.63;100860.38;4973851;28;45620;-76
2022/08/19 10:44:05;;;;;;;;;1.00;1.00;;;;;26.12;50.77;100855.47;4894885;29;45642;-75
2022/08/19 10:46:32;;;;;;;;;2.00;1.00;;;;;26.38;50.70;100851.47;4893626;28;45543;-74
2022/08/19 10:49:00;;;;;;;;;2.00;2.00;;;;;26.71;50.89;100847.00;4893876;29;45617;-76
2022/08/19 10:54:10;;;;;;;;;2.00;2.00;;;;;27.01;48.47;100853.53;4893285;29;45429;-75
2022/08/19 10:56:50;;;;;;;;;1.00;1.00;;;;;26.94;49.48;100846.91;4894821;29;46014;-76
2022/08/19 10:59:21;;;;;;;;;6.00;2.00;;;;;26.96;48.83;100844.91;4893268;29;45666;-76
2022/08/19 11:01:47;;;;;;;;;2.75;2.50;;;;;26.90;49.51;100848.13;4894443;29;45508;-76
2022/08/19 11:04:17;;;;;;;;;1.50;1.50;;;;;27.11;49.12;100845.44;4893588;29;46302;-75
2022/08/19 11:06:47;;;;;;;;;2.50;2.00;;;;;27.31;48.96;100843.72;4893730;29;45581;-75
2022/08/19 11:09:24;;;;;;;;;1.00;1.00;;;;;27.33;47.64;100833.66;4877700;29;45764;-75
2022/08/19 11:11:49;;;;;;;;;3.00;1.00;;;;;27.40;47.78;100832.09;4894867;29;45558;-76
2022/08/19 11:14:18;;;;;;;;;1.00;1.00;;;;;27.44;47.74;100840.84;4894403;29;45545;-75
2022/08/19 11:16:45;;;;;;;;;2.75;2.00;;;;;27.45;47.92;100829.88;4902292;28;45483;-75
2022/08/19 11:19:12;;;;;;;;;2.50;1.75;;;;;27.68;47.27;100829.69;4920401;28;45666;-76
2022/08/19 11:21:41;;;;;;;;;1.50;1.50;;;;;27.71;47.11;100821.28;4973740;28;45443;-76
2022/08/19 11:24:10;;;;;;;;;1.00;1.00;;;;;28.13;47.16;100823.00;4973355;28;46841;-75
2022/08/19 11:26:38;;;;;;;;;3.00;1.75;;;;;28.67;46.51;100826.28;4965474;28;45493;-74
2022/08/19 11:29:05;;;;;;;;;0.75;0.50;;;;;29.05;44.81;100808.22;4972917;28;45517;-75
2022/08/19 11:31:35;;;;;;;;;1.00;1.00;;;;;29.16;44.75;100812.66;4972578;28;45383;-76
2022/08/19 11:34:04;;;;;;;;;1.00;1.00;;;;;29.12;44.03;100819.38;4974324;28;45503;-75
2022/08/19 11:36:31;;;;;;;;;2.00;2.00;;;;;28.73;44.32;100822.09;4972955;28;45489;-73
2022/08/19 11:38:56;;;;;;;;;2.00;1.50;;;;;28.46;45.67;100810.06;4974293;28;45494;-75